sensor_id;sensor_type;location;lat;lon;timestamp;pressure;altitude;pressure_sealevel;temperature;humidity
6345;BME280;3205;42.666;23.264;2023-04-01T00:00:08;93536.50;;;11.02;100.00
6345;BME280;3205;42.666;23.264;2023-04-01T00:02:35;93535.41;;;11.03;100.00
6345;BME280;3205;42.666;23.264;2023-04-01T00:05:01;93530.47;;;11.01;100.00
6345;BME280;3205;42.666;23.264;2023-04-01T00:07:27;93539.91;;;11.02;100.00
6345;BME280;3205;42.666;23.264;2023-04-01T00:09:53;93534.78;;;11.12;100.00
6345;BME280;3205;42.666;23.264;2023-04-01T00:12:19;93535.44;;;11.06;100.00
6345;BME280;3205;42.666;23.264;2023-04-01T00:14:46;93537.09;;;11.14;100.00
6345;BME280;3205;42.666;23.264;2023-04-01T00:17:12;93540.69;;;11.03;100.00
6345;BME280;3205;42.666;23.264;2023-04-01T00:19:38;93538.63;;;11.15;100.00
6345;BME280;3205;42.666;23.264;2023-04-01T00:22:05;93556.19;;;11.04;100.00
6345;BME280;3205;42.666;23.264;2023-04-01T00:24:31;93542.31;;;11.10;100.00
6345;BME280;3205;42.666;23.264;2023-04-01T00:26:57;93541.50;;;11.07;100.00
6345;BME280;3205;42.666;23.264;2023-04-01T00:29:23;93544.59;;;11.12;100.00
6345;BME280;3205;42.666;23.264;2023-04-01T00:31:49;93536.72;;;11.15;100.00
6345;BME280;3205;42.666;23.264;2023-04-01T00:34:16;93535.88;;;11.08;100.00
6345;BME280;3205;42.666;23.264;2023-04-01T00:36:42;93525.50;;;11.00;100.00
6345;BME280;3205;42.666;23.264;2023-04-01T00:39:08;93525.03;;;10.91;100.00
6345;BME280;3205;42.666;23.264;2023-04-01T00:41:35;93523.53;;;10.93;100.00
6345;BME280;3205;42.666;23.264;2023-04-01T00:44:19;93515.00;;;11.03;100.00
6345;BME280;3205;42.666;23.264;2023-04-01T00:46:45;93522.19;;;11.03;100.00
6345;BME280;3205;42.666;23.264;2023-04-01T00:49:12;93513.38;;;10.95;100.00
6345;BME280;3205;42.666;23.264;2023-04-01T00:51:41;93521.06;;;11.04;100.00
6345;BME280;3205;42.666;23.264;2023-04-01T00:54:09;93522.31;;;10.87;100.00
6345;BME280;3205;42.666;23.264;2023-04-01T00:56:37;93512.59;;;10.95;100.00
6345;BME280;3205;42.666;23.264;2023-04-01T00:59:09;93499.75;;;10.93;100.00
6345;BME280;3205;42.666;23.264;2023-04-01T01:01:37;93500.34;;;10.83;100.00
6345;BME280;3205;42.666;23.264;2023-04-01T01:04:03;93486.78;;;10.62;100.00
6345;BME280;3205;42.666;23.264;2023-04-01T01:06:38;93487.09;;;10.57;100.00
6345;BME280;3205;42.666;23.264;2023-04-01T01:09:21;93478.94;;;10.43;100.00
6345;BME280;3205;42.666;23.264;2023-04-01T01:11:54;93476.28;;;10.43;100.00
6345;BME280;3205;42.666;23.264;2023-04-01T01:14:34;93477.13;;;10.47;100.00
6345;BME280;3205;42.666;23.264;2023-04-01T01:17:10;93472.13;;;10.42;100.00
6345;BME280;3205;42.666;23.264;2023-04-01T01:22:39;93462.19;;;10.58;100.00
6345;BME280;3205;42.666;23.264;2023-04-01T01:25:20;93458.34;;;10.52;100.00
6345;BME280;3205;42.666;23.264;2023-04-01T01:28:00;93448.28;;;10.39;100.00
6345;BME280;3205;42.666;23.264;2023-04-01T01:30:39;93440.34;;;10.39;100.00
6345;BME280;3205;42.666;23.264;2023-04-01T01:33:23;93441.31;;;10.28;100.00
6345;BME280;3205;42.666;23.264;2023-04-01T01:35:53;93433.56;;;10.38;100.00
6345;BME280;3205;42.666;23.264;2023-04-01T01:38:23;93435.66;;;10.51;100.00
6345;BME280;3205;42.666;23.264;2023-04-01T01:40:51;93447.22;;;10.43;100.00
6345;BME280;3205;42.666;23.264;2023-04-01T01:43:21;93447.81;;;10.56;100.00
6345;BME280;3205;42.666;23.264;2023-04-01T01:45:51;93455.63;;;10.49;100.00
6345;BME280;3205;42.666;23.264;2023-04-01T01:48:20;93449.94;;;10.47;100.00
6345;BME280;3205;42.666;23.264;2023-04-01T01:50:48;93445.31;;;10.40;100.00
6345;BME280;3205;42.666;23.264;2023-04-01T01:53:15;93430.75;;;10.50;100.00
6345;BME280;3205;42.666;23.264;2023-04-01T01:55:43;93431.72;;;10.64;100.00
6345;BME280;3205;42.666;23.264;2023-04-01T01:58:12;93428.59;;;10.59;100.00
6345;BME280;3205;42.666;23.264;2023-04-01T02:00:42;93423.69;;;10.57;100.00
6345;BME280;3205;42.666;23.264;2023-04-01T02:03:30;93434.31;;;10.87;100.00
6345;BME280;3205;42.666;23.264;2023-04-01T02:05:59;93427.44;;;11.08;100.00
6345;BME280;3205;42.666;23.264;2023-04-01T02:08:30;93419.31;;;11.23;100.00
6345;BME280;3205;42.666;23.264;2023-04-01T02:11:01;93420.25;;;11.38;100.00
6345;BME280;3205;42.666;23.264;2023-04-01T02:13:32;93419.63;;;11.48;100.00
6345;BME280;3205;42.666;23.264;2023-04-01T02:16:05;93417.94;;;11.33;100.00
6345;BME280;3205;42.666;23.264;2023-04-01T02:18:33;93416.41;;;11.32;100.00
6345;BME280;3205;42.666;23.264;2023-04-01T02:21:01;93409.50;;;11.24;100.00
6345;BME280;3205;42.666;23.264;2023-04-01T02:23:32;93412.06;;;11.17;100.00
6345;BME280;3205;42.666;23.264;2023-04-01T02:25:58;93420.31;;;11.12;100.00
6345;BME280;3205;42.666;23.264;2023-04-01T02:28:25;93421.75;;;11.06;100.00
6345;BME280;3205;42.666;23.264;2023-04-01T02:30:53;93421.38;;;11.07;100.00
6345;BME280;3205;42.666;23.264;2023-04-01T02:33:19;93420.59;;;11.04;100.00
6345;BME280;3205;42.666;23.264;2023-04-01T02:35:46;93423.50;;;10.95;100.00
6345;BME280;3205;42.666;23.264;2023-04-01T02:38:12;93422.63;;;10.88;100.00
6345;BME280;3205;42.666;23.264;2023-04-01T02:40:43;93425.53;;;10.79;100.00
6345;BME280;3205;42.666;23.264;2023-04-01T02:43:10;93417.63;;;10.83;100.00
6345;BME280;3205;42.666;23.264;2023-04-01T02:45:36;93422.88;;;10.79;100.00
6345;BME280;3205;42.666;23.264;2023-04-01T02:48:03;93427.28;;;10.72;100.00
6345;BME280;3205;42.666;23.264;2023-04-01T02:50:29;93428.47;;;10.74;100.00
6345;BME280;3205;42.666;23.264;2023-04-01T02:52:55;93433.56;;;10.86;100.00
6345;BME280;3205;42.666;23.264;2023-04-01T02:55:21;93440.66;;;10.82;100.00
6345;BME280;3205;42.666;23.264;2023-04-01T02:57:48;93441.78;;;10.81;100.00
6345;BME280;3205;42.666;23.264;2023-04-01T03:00:16;93439.63;;;10.90;100.00
6345;BME280;3205;42.666;23.264;2023-04-01T03:02:42;93448.47;;;10.75;100.00
6345;BME280;3205;42.666;23.264;2023-04-01T03:05:09;93447.13;;;10.85;100.00
6345;BME280;3205;42.666;23.264;2023-04-01T03:07:36;93457.59;;;10.78;100.00
6345;BME280;3205;42.666;23.264;2023-04-01T03:10:02;93444.44;;;10.81;100.00
6345;BME280;3205;42.666;23.264;2023-04-01T03:12:28;93444.59;;;10.92;100.00
6345;BME280;3205;42.666;23.264;2023-04-01T03:14:55;93443.34;;;10.86;100.00
6345;BME280;3205;42.666;23.264;2023-04-01T03:17:21;93454.28;;;10.84;100.00
6345;BME280;3205;42.666;23.264;2023-04-01T03:19:47;93458.41;;;10.82;100.00
6345;BME280;3205;42.666;23.264;2023-04-01T03:22:13;93453.28;;;10.66;100.00
6345;BME280;3205;42.666;23.264;2023-04-01T03:24:40;93466.19;;;10.71;100.00
6345;BME280;3205;42.666;23.264;2023-04-01T03:27:06;93454.91;;;10.74;100.00
6345;BME280;3205;42.666;23.264;2023-04-01T03:29:32;93452.91;;;10.68;100.00
6345;BME280;3205;42.666;23.264;2023-04-01T03:31:59;93457.31;;;10.60;100.00
6345;BME280;3205;42.666;23.264;2023-04-01T03:34:27;93442.34;;;10.68;100.00
6345;BME280;3205;42.666;23.264;2023-04-01T03:36:54;93438.88;;;10.64;100.00
6345;BME280;3205;42.666;23.264;2023-04-01T03:39:20;93416.47;;;10.80;100.00
6345;BME280;3205;42.666;23.264;2023-04-01T03:41:46;93416.91;;;10.86;100.00
6345;BME280;3205;42.666;23.264;2023-04-01T03:44:12;93403.66;;;11.08;100.00
6345;BME280;3205;42.666;23.264;2023-04-01T03:46:39;93384.94;;;11.23;100.00
6345;BME280;3205;42.666;23.264;2023-04-01T03:49:07;93372.56;;;11.31;100.00
6345;BME280;3205;42.666;23.264;2023-04-01T03:51:37;93367.91;;;11.21;100.00
6345;BME280;3205;42.666;23.264;2023-04-01T03:54:03;93360.78;;;11.25;100.00
6345;BME280;3205;42.666;23.264;2023-04-01T03:56:29;93363.34;;;11.18;100.00
6345;BME280;3205;42.666;23.264;2023-04-01T03:58:55;93362.44;;;11.07;100.00
6345;BME280;3205;42.666;23.264;2023-04-01T04:01:22;93354.06;;;11.02;100.00
6345;BME280;3205;42.666;23.264;2023-04-01T04:03:49;93347.28;;;11.04;100.00
6345;BME280;3205;42.666;23.264;2023-04-01T04:06:17;93344.38;;;11.12;100.00
6345;BME280;3205;42.666;23.264;2023-04-01T04:08:47;93329.94;;;11.07;100.00
6345;BME280;3205;42.666;23.264;2023-04-01T04:11:13;93317.31;;;11.26;100.00
6345;BME280;3205;42.666;23.264;2023-04-01T04:13:39;93314.44;;;11.38;100.00
6345;BME280;3205;42.666;23.264;2023-04-01T04:16:05;93315.09;;;11.28;100.00
6345;BME280;3205;42.666;23.264;2023-04-01T04:18:32;93332.41;;;11.22;100.00
6345;BME280;3205;42.666;23.264;2023-04-01T04:20:58;93329.34;;;11.20;100.00
6345;BME280;3205;42.666;23.264;2023-04-01T04:23:25;93323.16;;;11.09;100.00
6345;BME280;3205;42.666;23.264;2023-04-01T04:25:56;93315.19;;;11.06;100.00
6345;BME280;3205;42.666;23.264;2023-04-01T04:28:23;93310.16;;;10.94;100.00
6345;BME280;3205;42.666;23.264;2023-04-01T04:30:50;93316.41;;;10.82;100.00
6345;BME280;3205;42.666;23.264;2023-04-01T04:33:17;93318.97;;;10.75;100.00
6345;BME280;3205;42.666;23.264;2023-04-01T04:35:43;93303.63;;;10.84;100.00
6345;BME280;3205;42.666;23.264;2023-04-01T04:38:09;93291.88;;;10.82;100.00
6345;BME280;3205;42.666;23.264;2023-04-01T04:40:36;93309.84;;;10.69;100.00
6345;BME280;3205;42.666;23.264;2023-04-01T04:43:02;93291.28;;;10.66;100.00
6345;BME280;3205;42.666;23.264;2023-04-01T04:45:29;93287.53;;;10.67;100.00
6345;BME280;3205;42.666;23.264;2023-04-01T04:47:55;93289.22;;;10.82;100.00
6345;BME280;3205;42.666;23.264;2023-04-01T04:50:22;93294.81;;;10.73;100.00
6345;BME280;3205;42.666;23.264;2023-04-01T04:52:48;93282.69;;;10.72;100.00
6345;BME280;3205;42.666;23.264;2023-04-01T04:55:15;93283.38;;;10.66;100.00
6345;BME280;3205;42.666;23.264;2023-04-01T04:57:41;93286.47;;;10.71;100.00
6345;BME280;3205;42.666;23.264;2023-04-01T05:00:08;93268.19;;;10.59;100.00
6345;BME280;3205;42.666;23.264;2023-04-01T05:02:35;93276.47;;;10.58;100.00
6345;BME280;3205;42.666;23.264;2023-04-01T05:05:02;93271.22;;;10.61;100.00
6345;BME280;3205;42.666;23.264;2023-04-01T05:07:28;93265.03;;;10.80;100.00
6345;BME280;3205;42.666;23.264;2023-04-01T05:09:54;93266.88;;;10.76;100.00
6345;BME280;3205;42.666;23.264;2023-04-01T05:12:20;93254.38;;;10.73;100.00
6345;BME280;3205;42.666;23.264;2023-04-01T05:14:47;93253.59;;;10.69;100.00
6345;BME280;3205;42.666;23.264;2023-04-01T05:17:13;93260.13;;;10.49;100.00
6345;BME280;3205;42.666;23.264;2023-04-01T05:19:39;93222.16;;;10.60;100.00
6345;BME280;3205;42.666;23.264;2023-04-01T05:22:06;93247.09;;;10.63;100.00
6345;BME280;3205;42.666;23.264;2023-04-01T05:24:32;93227.38;;;10.86;100.00
6345;BME280;3205;42.666;23.264;2023-04-01T05:26:59;93234.19;;;11.23;100.00
6345;BME280;3205;42.666;23.264;2023-04-01T05:29:25;93236.47;;;12.18;100.00
6345;BME280;3205;42.666;23.264;2023-04-01T05:31:52;93237.06;;;13.85;100.00
6345;BME280;3205;42.666;23.264;2023-04-01T05:34:18;93238.59;;;16.39;100.00
6345;BME280;3205;42.666;23.264;2023-04-01T05:36:45;93226.47;;;18.36;91.58
6345;BME280;3205;42.666;23.264;2023-04-01T05:39:11;93237.31;;;20.95;70.99
6345;BME280;3205;42.666;23.264;2023-04-01T05:41:37;93243.59;;;23.59;58.68
6345;BME280;3205;42.666;23.264;2023-04-01T05:44:04;93244.16;;;25.29;48.23
6345;BME280;3205;42.666;23.264;2023-04-01T05:46:31;93229.47;;;27.32;41.40
6345;BME280;3205;42.666;23.264;2023-04-01T05:48:57;93238.25;;;26.25;38.95
6345;BME280;3205;42.666;23.264;2023-04-01T05:51:23;93230.16;;;26.16;39.50
6345;BME280;3205;42.666;23.264;2023-04-01T05:53:50;93224.75;;;26.48;40.98
6345;BME280;3205;42.666;23.264;2023-04-01T05:56:16;93234.22;;;25.52;40.32
6345;BME280;3205;42.666;23.264;2023-04-01T05:58:42;93233.53;;;26.34;39.39
6345;BME280;3205;42.666;23.264;2023-04-01T06:01:10;93224.97;;;27.67;36.00
6345;BME280;3205;42.666;23.264;2023-04-01T06:03:36;93225.25;;;28.61;34.57
6345;BME280;3205;42.666;23.264;2023-04-01T06:06:03;93244.22;;;25.97;35.92
6345;BME280;3205;42.666;23.264;2023-04-01T06:08:31;93226.47;;;24.44;38.23
6345;BME280;3205;42.666;23.264;2023-04-01T06:11:07;93229.13;;;22.55;40.75
6345;BME280;3205;42.666;23.264;2023-04-01T06:13:54;93228.75;;;21.41;43.41
6345;BME280;3205;42.666;23.264;2023-04-01T06:16:32;93238.59;;;20.31;46.45
6345;BME280;3205;42.666;23.264;2023-04-01T06:19:11;93223.66;;;18.66;49.46
6345;BME280;3205;42.666;23.264;2023-04-01T06:22:02;93235.56;;;17.67;53.49
6345;BME280;3205;42.666;23.264;2023-04-01T06:25:12;93246.38;;;17.60;60.25
6345;BME280;3205;42.666;23.264;2023-04-01T06:30:40;93207.53;;;16.92;60.80
6345;BME280;3205;42.666;23.264;2023-04-01T06:33:30;93225.38;;;16.99;61.11
6345;BME280;3205;42.666;23.264;2023-04-01T06:39:02;93209.19;;;17.12;62.56
6345;BME280;3205;42.666;23.264;2023-04-01T06:44:43;93202.09;;;15.89;68.39
6345;BME280;3205;42.666;23.264;2023-04-01T06:47:26;93207.72;;;15.94;70.06
6345;BME280;3205;42.666;23.264;2023-04-01T06:50:01;93203.72;;;16.16;71.57
6345;BME280;3205;42.666;23.264;2023-04-01T06:52:39;93196.19;;;16.08;73.79
6345;BME280;3205;42.666;23.264;2023-04-01T06:55:21;93162.25;;;16.12;67.33
6345;BME280;3205;42.666;23.264;2023-04-01T06:57:53;93179.25;;;15.88;75.28
6345;BME280;3205;42.666;23.264;2023-04-01T07:00:27;93171.84;;;16.06;75.98
6345;BME280;3205;42.666;23.264;2023-04-01T07:03:00;93171.72;;;16.20;73.89
6345;BME280;3205;42.666;23.264;2023-04-01T07:05:31;93194.19;;;16.19;72.79
6345;BME280;3205;42.666;23.264;2023-04-01T07:07:59;93190.91;;;16.44;69.84
6345;BME280;3205;42.666;23.264;2023-04-01T07:10:34;93181.72;;;16.49;70.12
6345;BME280;3205;42.666;23.264;2023-04-01T07:13:05;93180.16;;;16.15;70.84
6345;BME280;3205;42.666;23.264;2023-04-01T07:15:38;93156.03;;;16.62;71.49
6345;BME280;3205;42.666;23.264;2023-04-01T07:18:11;93175.91;;;16.91;69.76
6345;BME280;3205;42.666;23.264;2023-04-01T07:20:39;93194.91;;;16.96;69.03
6345;BME280;3205;42.666;23.264;2023-04-01T07:23:10;93203.03;;;17.19;69.89
6345;BME280;3205;42.666;23.264;2023-04-01T07:25:45;93198.03;;;17.51;68.89
6345;BME280;3205;42.666;23.264;2023-04-01T07:28:14;93169.81;;;16.57;68.58
6345;BME280;3205;42.666;23.264;2023-04-01T07:30:51;93184.72;;;17.70;72.48
6345;BME280;3205;42.666;23.264;2023-04-01T07:33:22;93184.16;;;20.59;54.33
6345;BME280;3205;42.666;23.264;2023-04-01T07:35:58;93153.59;;;21.75;51.99
6345;BME280;3205;42.666;23.264;2023-04-01T07:38:35;93192.91;;;21.32;51.67
6345;BME280;3205;42.666;23.264;2023-04-01T07:41:11;93190.00;;;19.78;53.23
6345;BME280;3205;42.666;23.264;2023-04-01T07:43:46;93167.72;;;18.91;57.10
6345;BME280;3205;42.666;23.264;2023-04-01T07:46:40;93191.94;;;18.45;60.22
6345;BME280;3205;42.666;23.264;2023-04-01T07:49:14;93171.69;;;17.76;62.01
6345;BME280;3205;42.666;23.264;2023-04-01T07:51:45;93174.72;;;17.78;64.08
6345;BME280;3205;42.666;23.264;2023-04-01T07:54:19;93179.63;;;17.56;61.65
6345;BME280;3205;42.666;23.264;2023-04-01T07:56:54;93176.25;;;17.22;63.94
6345;BME280;3205;42.666;23.264;2023-04-01T07:59:27;93172.63;;;16.80;67.95
6345;BME280;3205;42.666;23.264;2023-04-01T08:02:02;93166.75;;;16.58;72.04
6345;BME280;3205;42.666;23.264;2023-04-01T08:04:42;93169.41;;;16.58;72.44
6345;BME280;3205;42.666;23.264;2023-04-01T08:07:15;93160.38;;;16.82;70.62
6345;BME280;3205;42.666;23.264;2023-04-01T08:09:46;93136.91;;;16.97;68.99
6345;BME280;3205;42.666;23.264;2023-04-01T08:12:23;93141.81;;;17.31;67.42
6345;BME280;3205;42.666;23.264;2023-04-01T08:15:01;93149.38;;;17.36;68.09
6345;BME280;3205;42.666;23.264;2023-04-01T08:17:31;93139.66;;;17.72;67.41
6345;BME280;3205;42.666;23.264;2023-04-01T08:20:14;93116.03;;;17.71;66.34
6345;BME280;3205;42.666;23.264;2023-04-01T08:22:47;93121.34;;;17.48;67.84
6345;BME280;3205;42.666;23.264;2023-04-01T08:25:19;93107.69;;;17.16;68.69
6345;BME280;3205;42.666;23.264;2023-04-01T08:27:50;93113.09;;;17.62;69.70
6345;BME280;3205;42.666;23.264;2023-04-01T08:30:21;93113.66;;;18.96;62.16
6345;BME280;3205;42.666;23.264;2023-04-01T08:32:53;93086.13;;;21.82;52.20
6345;BME280;3205;42.666;23.264;2023-04-01T08:35:27;93072.63;;;23.35;47.40
6345;BME280;3205;42.666;23.264;2023-04-01T08:37:57;93050.69;;;23.24;47.75
6345;BME280;3205;42.666;23.264;2023-04-01T08:40:37;93036.56;;;23.11;47.29
6345;BME280;3205;42.666;23.264;2023-04-01T08:43:09;93040.63;;;24.66;42.71
6345;BME280;3205;42.666;23.264;2023-04-01T08:45:49;93042.03;;;22.99;44.29
6345;BME280;3205;42.666;23.264;2023-04-01T08:48:36;93043.97;;;23.68;44.12
6345;BME280;3205;42.666;23.264;2023-04-01T08:54:36;93044.91;;;23.34;43.99
6345;BME280;3205;42.666;23.264;2023-04-01T08:57:10;93055.28;;;23.36;43.52
6345;BME280;3205;42.666;23.264;2023-04-01T08:59:53;93049.38;;;21.54;46.08
6345;BME280;3205;42.666;23.264;2023-04-01T09:02:37;93049.91;;;20.87;47.95
6345;BME280;3205;42.666;23.264;2023-04-01T09:05:30;93054.66;;;20.26;49.89
6345;BME280;3205;42.666;23.264;2023-04-01T09:08:06;93044.06;;;19.91;50.52
6345;BME280;3205;42.666;23.264;2023-04-01T09:10:49;93055.94;;;19.46;51.49
6345;BME280;3205;42.666;23.264;2023-04-01T09:13:36;93051.16;;;19.38;51.77
6345;BME280;3205;42.666;23.264;2023-04-01T09:16:21;93039.50;;;19.60;51.34
6345;BME280;3205;42.666;23.264;2023-04-01T09:19:05;93047.38;;;19.51;50.57
6345;BME280;3205;42.666;23.264;2023-04-01T09:21:47;93045.63;;;19.44;51.83
6345;BME280;3205;42.666;23.264;2023-04-01T09:24:41;93035.22;;;19.31;53.16
6345;BME280;3205;42.666;23.264;2023-04-01T09:27:18;93021.38;;;19.00;53.54
6345;BME280;3205;42.666;23.264;2023-04-01T09:35:50;93013.00;;;20.63;45.69
6345;BME280;3205;42.666;23.264;2023-04-01T09:38:29;93006.25;;;20.83;43.09
6345;BME280;3205;42.666;23.264;2023-04-01T09:40:57;92996.78;;;21.28;42.32
6345;BME280;3205;42.666;23.264;2023-04-01T09:43:29;92999.00;;;21.67;41.50
6345;BME280;3205;42.666;23.264;2023-04-01T09:46:10;92976.00;;;22.73;39.58
6345;BME280;3205;42.666;23.264;2023-04-01T09:51:39;92970.31;;;26.27;35.38
6345;BME280;3205;42.666;23.264;2023-04-01T09:54:26;92970.44;;;27.68;33.05
6345;BME280;3205;42.666;23.264;2023-04-01T10:00:32;92960.56;;;26.21;33.73
6345;BME280;3205;42.666;23.264;2023-04-01T10:12:45;92949.28;;;24.01;35.16
6345;BME280;3205;42.666;23.264;2023-04-01T10:15:50;92947.91;;;23.97;36.10
6345;BME280;3205;42.666;23.264;2023-04-01T10:19:01;92928.28;;;23.88;36.56
6345;BME280;3205;42.666;23.264;2023-04-01T10:22:00;92938.84;;;23.37;36.60
6345;BME280;3205;42.666;23.264;2023-04-01T10:24:59;92923.16;;;22.36;39.02
6345;BME280;3205;42.666;23.264;2023-04-01T10:27:57;92920.22;;;22.43;39.77
6345;BME280;3205;42.666;23.264;2023-04-01T10:30:55;92922.78;;;22.04;40.43
6345;BME280;3205;42.666;23.264;2023-04-01T10:33:46;92930.63;;;21.56;40.19
6345;BME280;3205;42.666;23.264;2023-04-01T10:36:46;92914.09;;;22.00;38.84
6345;BME280;3205;42.666;23.264;2023-04-01T10:49:19;92891.38;;;21.12;38.05
6345;BME280;3205;42.666;23.264;2023-04-01T10:55:22;92880.00;;;20.95;40.36
6345;BME280;3205;42.666;23.264;2023-04-01T10:58:21;92887.72;;;21.06;40.39
6345;BME280;3205;42.666;23.264;2023-04-01T11:13:39;92878.50;;;20.94;41.16
6345;BME280;3205;42.666;23.264;2023-04-01T11:19:43;92882.28;;;20.72;40.96
6345;BME280;3205;42.666;23.264;2023-04-01T11:22:41;92902.34;;;20.30;41.59
6345;BME280;3205;42.666;23.264;2023-04-01T11:25:46;92904.03;;;20.12;43.54
6345;BME280;3205;42.666;23.264;2023-04-01T11:28:40;92934.56;;;19.74;47.32
6345;BME280;3205;42.666;23.264;2023-04-01T11:31:21;92955.75;;;19.08;49.91
6345;BME280;3205;42.666;23.264;2023-04-01T11:33:52;92944.38;;;18.72;56.41
6345;BME280;3205;42.666;23.264;2023-04-01T11:36:33;92972.72;;;18.15;62.63
6345;BME280;3205;42.666;23.264;2023-04-01T11:39:13;92994.00;;;17.61;79.15
6345;BME280;3205;42.666;23.264;2023-04-01T11:41:49;93029.88;;;16.91;99.55
6345;BME280;3205;42.666;23.264;2023-04-01T11:44:20;93046.38;;;16.23;100.00
6345;BME280;3205;42.666;23.264;2023-04-01T11:47:00;93097.75;;;15.47;100.00
6345;BME280;3205;42.666;23.264;2023-04-01T11:49:49;93121.13;;;14.57;100.00
6345;BME280;3205;42.666;23.264;2023-04-01T11:52:24;93114.06;;;14.06;100.00
6345;BME280;3205;42.666;23.264;2023-04-01T11:55:05;93112.25;;;13.54;100.00
6345;BME280;3205;42.666;23.264;2023-04-01T11:57:43;93110.00;;;13.25;100.00
6345;BME280;3205;42.666;23.264;2023-04-01T12:00:28;93119.06;;;13.03;100.00
6345;BME280;3205;42.666;23.264;2023-04-01T12:03:11;93098.19;;;12.84;100.00
6345;BME280;3205;42.666;23.264;2023-04-01T12:05:47;93086.78;;;12.69;100.00
6345;BME280;3205;42.666;23.264;2023-04-01T12:08:29;93080.31;;;12.67;100.00
6345;BME280;3205;42.666;23.264;2023-04-01T12:11:00;93073.91;;;12.75;100.00
6345;BME280;3205;42.666;23.264;2023-04-01T12:13:36;93067.88;;;12.99;100.00
6345;BME280;3205;42.666;23.264;2023-04-01T12:16:20;93060.25;;;13.77;100.00
6345;BME280;3205;42.666;23.264;2023-04-01T12:18:57;93064.09;;;14.62;100.00
6345;BME280;3205;42.666;23.264;2023-04-01T12:21:28;93055.84;;;15.03;100.00
6345;BME280;3205;42.666;23.264;2023-04-01T12:24:15;93063.06;;;15.54;100.00
6345;BME280;3205;42.666;23.264;2023-04-01T12:26:55;93065.91;;;15.76;100.00
6345;BME280;3205;42.666;23.264;2023-04-01T12:29:42;93077.16;;;15.54;100.00
6345;BME280;3205;42.666;23.264;2023-04-01T12:32:21;93081.88;;;15.36;100.00
6345;BME280;3205;42.666;23.264;2023-04-01T12:35:02;93092.03;;;14.94;100.00
6345;BME280;3205;42.666;23.264;2023-04-01T12:37:42;93085.03;;;14.60;100.00
6345;BME280;3205;42.666;23.264;2023-04-01T12:40:32;93090.09;;;14.26;100.00
6345;BME280;3205;42.666;23.264;2023-04-01T12:43:23;93070.78;;;14.08;100.00
6345;BME280;3205;42.666;23.264;2023-04-01T12:45:56;93066.63;;;14.04;100.00
6345;BME280;3205;42.666;23.264;2023-04-01T12:51:44;93080.91;;;14.45;100.00
6345;BME280;3205;42.666;23.264;2023-04-01T12:57:46;93053.28;;;14.25;100.00
6345;BME280;3205;42.666;23.264;2023-04-01T13:00:27;93054.06;;;14.15;100.00
6345;BME280;3205;42.666;23.264;2023-04-01T13:03:10;93043.41;;;14.22;100.00
6345;BME280;3205;42.666;23.264;2023-04-01T13:06:04;93050.19;;;14.37;100.00
6345;BME280;3205;42.666;23.264;2023-04-01T13:08:44;93027.69;;;14.55;100.00
6345;BME280;3205;42.666;23.264;2023-04-01T13:11:19;93006.81;;;14.54;100.00
6345;BME280;3205;42.666;23.264;2023-04-01T13:16:53;92990.06;;;15.51;100.00
6345;BME280;3205;42.666;23.264;2023-04-01T13:19:27;92996.06;;;15.62;100.00
6345;BME280;3205;42.666;23.264;2023-04-01T13:22:06;93004.44;;;15.57;100.00
6345;BME280;3205;42.666;23.264;2023-04-01T13:24:43;93011.75;;;15.50;100.00
6345;BME280;3205;42.666;23.264;2023-04-01T13:27:16;93013.41;;;15.37;100.00
6345;BME280;3205;42.666;23.264;2023-04-01T13:29:47;93010.97;;;15.09;100.00
6345;BME280;3205;42.666;23.264;2023-04-01T13:32:24;93013.22;;;15.10;100.00
6345;BME280;3205;42.666;23.264;2023-04-01T13:34:59;92996.44;;;15.17;100.00
6345;BME280;3205;42.666;23.264;2023-04-01T13:37:42;92984.25;;;15.23;100.00
6345;BME280;3205;42.666;23.264;2023-04-01T13:40:23;92980.22;;;15.01;100.00
6345;BME280;3205;42.666;23.264;2023-04-01T13:42:55;92975.44;;;14.82;100.00
6345;BME280;3205;42.666;23.264;2023-04-01T13:45:24;92967.53;;;14.75;100.00
6345;BME280;3205;42.666;23.264;2023-04-01T13:54:04;92961.50;;;15.55;100.00
6345;BME280;3205;42.666;23.264;2023-04-01T13:56:44;92968.34;;;15.56;100.00
6345;BME280;3205;42.666;23.264;2023-04-01T13:59:39;92958.97;;;15.41;100.00
6345;BME280;3205;42.666;23.264;2023-04-01T14:02:29;92951.47;;;15.29;100.00
6345;BME280;3205;42.666;23.264;2023-04-01T14:05:13;92946.69;;;15.10;100.00
6345;BME280;3205;42.666;23.264;2023-04-01T14:07:55;92939.13;;;15.05;100.00
6345;BME280;3205;42.666;23.264;2023-04-01T14:10:34;92940.38;;;14.94;100.00
6345;BME280;3205;42.666;23.264;2023-04-01T14:13:09;92945.78;;;14.83;100.00
6345;BME280;3205;42.666;23.264;2023-04-01T14:16:02;92946.19;;;14.82;100.00
6345;BME280;3205;42.666;23.264;2023-04-01T14:18:39;92932.47;;;14.83;100.00
6345;BME280;3205;42.666;23.264;2023-04-01T14:21:13;92932.06;;;14.88;100.00
6345;BME280;3205;42.666;23.264;2023-04-01T14:30:13;92911.25;;;15.20;100.00
6345;BME280;3205;42.666;23.264;2023-04-01T14:32:47;92895.94;;;15.31;100.00
6345;BME280;3205;42.666;23.264;2023-04-01T14:35:25;92900.00;;;15.43;100.00
6345;BME280;3205;42.666;23.264;2023-04-01T14:38:16;92890.38;;;15.52;100.00
6345;BME280;3205;42.666;23.264;2023-04-01T14:40:55;92884.88;;;15.66;100.00
6345;BME280;3205;42.666;23.264;2023-04-01T14:43:47;92890.00;;;15.83;100.00
6345;BME280;3205;42.666;23.264;2023-04-01T14:49:34;92895.13;;;15.97;93.05
6345;BME280;3205;42.666;23.264;2023-04-01T14:52:05;92894.41;;;15.97;95.92
6345;BME280;3205;42.666;23.264;2023-04-01T14:54:37;92898.13;;;16.03;93.41
6345;BME280;3205;42.666;23.264;2023-04-01T14:57:10;92903.88;;;15.98;94.98
6345;BME280;3205;42.666;23.264;2023-04-01T14:59:40;92901.63;;;15.96;95.17
6345;BME280;3205;42.666;23.264;2023-04-01T15:02:15;92908.16;;;15.92;95.65
6345;BME280;3205;42.666;23.264;2023-04-01T15:04:53;92905.94;;;15.87;96.87
6345;BME280;3205;42.666;23.264;2023-04-01T15:07:52;92912.81;;;15.84;95.69
6345;BME280;3205;42.666;23.264;2023-04-01T15:13:42;92924.63;;;15.50;100.00
6345;BME280;3205;42.666;23.264;2023-04-01T15:16:20;92938.22;;;15.59;100.00